createdAt,value
2023-01-11T00:00:26.057Z,82.00
2023-01-11T00:02:59.982Z,81.80
2023-01-11T00:05:26.850Z,82.00
2023-01-11T00:07:53.711Z,82.30
2023-01-11T00:10:20.533Z,82.00
2023-01-11T00:12:48.129Z,81.70
2023-01-11T00:15:14.956Z,81.60
2023-01-11T00:17:41.911Z,81.60
2023-01-11T00:20:10.232Z,81.10
2023-01-11T00:22:37.320Z,81.20
2023-01-11T00:25:04.491Z,80.60
2023-01-11T00:27:31.367Z,81.30
2023-01-11T00:29:58.178Z,81.00
2023-01-11T00:32:24.979Z,80.20
2023-01-11T00:34:51.736Z,80.20
2023-01-11T00:37:18.539Z,79.80
2023-01-11T00:39:45.326Z,79.80
2023-01-11T00:42:31.654Z,79.00
2023-01-11T00:45:27.917Z,78.60
2023-01-11T00:47:57.824Z,78.90
2023-01-11T00:50:25.399Z,77.90
2023-01-11T00:52:52.186Z,78.10
2023-01-11T00:55:19.120Z,77.70
2023-01-11T00:57:46.006Z,77.80
2023-01-11T01:00:13.453Z,77.90
2023-01-11T01:02:40.361Z,77.90
2023-01-11T01:05:07.480Z,76.80
2023-01-11T01:07:34.212Z,76.70
2023-01-11T01:10:01.026Z,76.40
2023-01-11T01:12:46.319Z,75.70
2023-01-11T01:15:13.065Z,76.60
2023-01-11T01:17:39.848Z,76.20
2023-01-11T01:20:07.405Z,76.20
2023-01-11T01:22:34.437Z,75.70
2023-01-11T01:25:01.206Z,75.30
2023-01-11T01:27:28.005Z,75.80
2023-01-11T01:29:54.707Z,76.10
2023-01-11T01:32:21.497Z,75.50
2023-01-11T01:34:48.350Z,75.50
2023-01-11T01:37:15.922Z,74.90
2023-01-11T01:39:42.655Z,76.30
2023-01-11T01:42:16.052Z,75.00
2023-01-11T01:44:54.717Z,74.80
2023-01-11T01:47:32.266Z,74.50
2023-01-11T01:50:00.068Z,74.40
2023-01-11T01:52:29.227Z,74.50
2023-01-11T01:54:57.806Z,74.40
2023-01-11T01:57:26.375Z,74.00
2023-01-11T01:59:53.193Z,73.20
2023-01-11T02:02:20.671Z,73.50
2023-01-11T02:04:47.517Z,73.60
2023-01-11T02:07:19.050Z,72.70
2023-01-11T02:10:02.567Z,72.80
2023-01-11T02:12:31.855Z,73.00
2023-01-11T02:15:03.493Z,72.70
2023-01-11T02:17:30.317Z,73.20
2023-01-11T02:20:11.914Z,73.00
2023-01-11T02:23:06.497Z,72.40
2023-01-11T02:25:54.748Z,72.10
2023-01-11T02:28:42.080Z,72.80
2023-01-11T02:31:49.432Z,72.00
2023-01-11T02:34:27.449Z,71.90
2023-01-11T02:37:31.959Z,72.60
2023-01-11T02:40:00.176Z,71.00
2023-01-11T02:43:21.501Z,70.80
2023-01-11T02:45:52.829Z,70.60
2023-01-11T02:48:34.644Z,70.90
2023-01-11T02:51:15.967Z,71.20
2023-01-11T02:53:49.287Z,71.20
2023-01-11T02:56:21.375Z,71.70
2023-01-11T02:58:49.290Z,72.10
2023-01-11T03:01:16.087Z,70.40
2023-01-11T03:03:42.878Z,71.20
2023-01-11T03:06:12.378Z,70.80
2023-01-11T03:09:02.895Z,71.20
2023-01-11T03:12:09.521Z,71.60
2023-01-11T03:14:44.858Z,70.30
2023-01-11T03:17:26.277Z,71.10
2023-01-11T03:19:54.808Z,71.40
2023-01-11T03:22:41.782Z,70.30
2023-01-11T03:25:29.728Z,71.40
2023-01-11T03:27:58.115Z,70.70
2023-01-11T03:30:34.310Z,71.00
2023-01-11T03:33:11.691Z,70.80
2023-01-11T03:35:54.629Z,70.50
2023-01-11T03:38:37.504Z,70.10
2023-01-11T03:41:19.586Z,70.00
2023-01-11T03:43:46.713Z,69.60
2023-01-11T03:46:22.758Z,68.60
2023-01-11T03:49:03.742Z,68.70
2023-01-11T03:51:31.873Z,67.80
2023-01-11T03:54:01.523Z,68.40
2023-01-11T03:56:36.763Z,67.90
2023-01-11T03:59:03.522Z,68.60
2023-01-11T04:01:30.338Z,69.30
2023-01-11T04:03:57.122Z,69.30
2023-01-11T04:06:24.102Z,68.90
2023-01-11T04:08:50.969Z,69.50
2023-01-11T04:11:17.725Z,68.80
2023-01-11T04:13:44.485Z,68.30
2023-01-11T04:16:11.314Z,67.80
2023-01-11T04:18:38.097Z,68.20
2023-01-11T04:21:05.087Z,68.50
2023-01-11T04:23:31.832Z,68.80
2023-01-11T04:25:58.583Z,67.70
2023-01-11T04:28:25.363Z,68.10
2023-01-11T04:30:52.162Z,68.90
2023-01-11T04:33:19.611Z,68.00
2023-01-11T04:35:46.384Z,68.20
2023-01-11T04:38:13.122Z,66.10
2023-01-11T04:40:39.846Z,67.10
2023-01-11T04:43:06.613Z,67.40
2023-01-11T04:45:33.463Z,67.20
2023-01-11T04:48:00.264Z,68.00
2023-01-11T04:50:27.336Z,67.10
2023-01-11T04:52:54.194Z,66.70
2023-01-11T04:55:21.064Z,67.20
2023-01-11T04:57:47.811Z,66.40
2023-01-11T05:00:15.937Z,67.50
2023-01-11T05:02:42.748Z,67.70
2023-01-11T05:05:10.259Z,66.40
2023-01-11T05:07:38.840Z,67.20
2023-01-11T05:10:06.316Z,67.80
2023-01-11T05:12:33.091Z,68.20
2023-01-11T05:14:59.918Z,68.50
2023-01-11T05:17:26.686Z,69.00
2023-01-11T05:19:53.449Z,69.20
2023-01-11T05:22:20.271Z,68.60
2023-01-11T05:24:47.152Z,67.40
2023-01-11T05:27:14.009Z,67.80
2023-01-11T05:29:40.889Z,68.30
2023-01-11T05:32:07.713Z,68.10
2023-01-11T05:34:34.500Z,68.80
2023-01-11T05:37:01.322Z,68.70
2023-01-11T05:39:28.180Z,68.00
2023-01-11T05:41:54.911Z,68.60
2023-01-11T05:44:40.151Z,68.50
2023-01-11T05:47:06.984Z,68.70
2023-01-11T05:49:33.956Z,69.10
2023-01-11T05:52:00.690Z,69.00
2023-01-11T05:54:27.558Z,68.70
2023-01-11T05:56:56.889Z,68.10
2023-01-11T05:59:23.844Z,68.90
2023-01-11T06:01:50.827Z,69.20
2023-01-11T06:04:17.699Z,69.80
2023-01-11T06:06:44.551Z,69.80
2023-01-11T06:09:11.481Z,70.10
2023-01-11T06:11:38.253Z,69.80
2023-01-11T06:14:05.052Z,69.50
2023-01-11T06:16:31.894Z,69.50
2023-01-11T06:18:58.761Z,69.80
2023-01-11T06:21:25.630Z,69.70
2023-01-11T06:23:52.460Z,69.50
2023-01-11T06:26:21.281Z,69.80
2023-01-11T06:28:48.298Z,69.80
2023-01-11T06:31:17.417Z,70.20
2023-01-11T06:33:45.145Z,70.20
2023-01-11T06:36:12.379Z,70.70
2023-01-11T06:38:39.156Z,70.60
2023-01-11T06:41:08.245Z,70.80
2023-01-11T06:43:35.421Z,71.10
2023-01-11T06:46:02.303Z,70.70
2023-01-11T06:48:29.140Z,70.80
2023-01-11T06:50:57.287Z,71.50
2023-01-11T06:53:26.673Z,71.90
2023-01-11T06:55:56.378Z,71.90
2023-01-11T06:58:26.268Z,72.40
2023-01-11T07:00:53.913Z,73.50
2023-01-11T07:03:20.780Z,74.30
2023-01-11T07:05:47.661Z,75.10
2023-01-11T07:08:14.503Z,76.60
2023-01-11T07:10:41.741Z,76.80
2023-01-11T07:13:08.467Z,70.20
2023-01-11T07:15:35.244Z,68.50
2023-01-11T07:18:02.209Z,66.70
2023-01-11T07:20:29.237Z,67.70
2023-01-11T07:22:59.588Z,70.00
2023-01-11T07:25:27.818Z,71.10
2023-01-11T07:28:01.962Z,72.30
2023-01-11T07:30:29.957Z,73.30
2023-01-11T07:33:00.158Z,73.10
2023-01-11T07:35:29.758Z,69.40
2023-01-11T07:37:56.550Z,66.70
2023-01-11T07:40:23.368Z,65.70
2023-01-11T07:43:09.262Z,60.90
2023-01-11T07:45:45.265Z,57.70
2023-01-11T07:48:13.305Z,53.70
2023-01-11T07:50:42.697Z,51.50
2023-01-11T07:53:10.959Z,50.50
2023-01-11T07:55:39.678Z,49.80
2023-01-11T07:58:07.450Z,48.80
2023-01-11T08:00:34.228Z,47.50
2023-01-11T08:03:02.536Z,46.90
2023-01-11T08:05:29.585Z,47.80
2023-01-11T08:07:56.369Z,47.20
2023-01-11T08:10:23.212Z,46.90
2023-01-11T08:13:08.497Z,47.20
2023-01-11T08:15:36.701Z,46.00
2023-01-11T08:18:06.643Z,46.30
2023-01-11T08:20:33.556Z,45.80
2023-01-11T08:23:04.714Z,44.70
2023-01-11T08:25:32.102Z,44.10
2023-01-11T08:28:02.495Z,43.40
2023-01-11T08:30:29.626Z,41.80
2023-01-11T08:32:57.505Z,40.00
2023-01-11T08:35:25.307Z,39.00
2023-01-11T08:37:52.115Z,39.10
2023-01-11T08:40:19.033Z,38.10
2023-01-11T08:42:45.827Z,38.40
2023-01-11T08:45:12.617Z,37.10
2023-01-11T08:47:39.410Z,37.20
2023-01-11T08:50:08.262Z,38.10
2023-01-11T08:52:35.119Z,37.00
2023-01-11T08:55:01.882Z,36.20
2023-01-11T08:57:28.685Z,35.30
2023-01-11T08:59:55.490Z,36.00
2023-01-11T09:02:22.518Z,37.00
2023-01-11T09:04:49.309Z,35.70
2023-01-11T09:07:16.149Z,35.30
2023-01-11T09:09:42.966Z,36.30
2023-01-11T09:12:09.729Z,35.40
2023-01-11T09:14:36.520Z,36.20
2023-01-11T09:17:03.473Z,36.40
2023-01-11T09:19:30.299Z,35.80
2023-01-11T09:21:58.211Z,36.20
2023-01-11T09:24:24.997Z,35.80
2023-01-11T09:26:51.804Z,35.60
2023-01-11T09:29:19.359Z,34.70
2023-01-11T09:31:46.219Z,35.10
2023-01-11T09:34:13.389Z,34.60
2023-01-11T09:36:40.388Z,34.90
2023-01-11T09:39:10.551Z,33.90
2023-01-11T09:41:37.266Z,33.90
2023-01-11T09:44:14.494Z,33.80
2023-01-11T09:46:42.947Z,33.70
2023-01-11T09:49:19.043Z,34.30
2023-01-11T09:51:46.221Z,34.90
2023-01-11T09:54:19.121Z,35.10
2023-01-11T09:56:51.245Z,35.30
2023-01-11T09:59:34.958Z,36.70
2023-01-11T10:02:34.618Z,37.50
2023-01-11T10:05:09.736Z,37.20
2023-01-11T10:07:37.955Z,37.60
2023-01-11T10:18:37.346Z,36.50
2023-01-11T10:21:55.311Z,35.10
2023-01-11T10:24:42.269Z,34.60
2023-01-11T10:27:26.610Z,34.70
2023-01-11T10:29:53.403Z,34.90
2023-01-11T10:32:48.206Z,34.80
2023-01-11T10:35:34.034Z,35.80
2023-01-11T10:38:30.855Z,35.20
2023-01-11T10:41:10.445Z,36.00
2023-01-11T10:43:43.381Z,35.80
2023-01-11T10:46:18.864Z,35.20
2023-01-11T10:48:46.098Z,34.80
2023-01-11T10:51:29.444Z,35.30
2023-01-11T10:54:00.047Z,33.70
2023-01-11T10:56:36.133Z,34.30
2023-01-11T10:59:20.695Z,34.30
2023-01-11T11:01:55.096Z,33.80
2023-01-11T11:04:48.212Z,34.10
2023-01-11T11:07:27.072Z,33.80
2023-01-11T11:10:11.391Z,33.80
2023-01-11T11:12:39.761Z,33.50
2023-01-11T11:15:18.805Z,33.80
2023-01-11T11:17:49.294Z,33.70
2023-01-11T11:20:24.414Z,33.80
2023-01-11T11:22:54.410Z,33.40
2023-01-11T11:25:42.025Z,35.80
2023-01-11T11:28:30.061Z,36.70
2023-01-11T11:30:58.730Z,37.30
2023-01-11T11:33:35.945Z,37.90
2023-01-11T11:36:05.004Z,40.10
2023-01-11T11:38:33.532Z,40.20
2023-01-11T11:41:13.945Z,41.00
2023-01-11T11:43:41.868Z,39.50
2023-01-11T11:46:18.749Z,41.40
2023-01-11T11:49:04.738Z,41.70
2023-01-11T11:51:31.545Z,43.00
2023-01-11T11:53:58.409Z,43.20
2023-01-11T11:56:31.021Z,43.80
2023-01-11T11:58:58.352Z,44.20
2023-01-11T12:01:26.722Z,43.90
2023-01-11T12:03:55.950Z,44.80
2023-01-11T12:06:27.781Z,44.20
2023-01-11T12:08:54.565Z,44.80
2023-01-11T12:11:35.040Z,43.00
2023-01-11T12:14:10.819Z,44.10
2023-01-11T12:16:39.700Z,45.30
2023-01-11T12:19:35.737Z,46.20
2023-01-11T12:22:25.517Z,43.50
2023-01-11T12:25:13.837Z,44.80
2023-01-11T12:28:01.822Z,46.50
2023-01-11T12:30:49.103Z,48.40
2023-01-11T12:33:18.994Z,45.40
2023-01-11T12:35:53.865Z,45.80
2023-01-11T12:38:49.997Z,47.70
2023-01-11T12:41:51.661Z,47.70
2023-01-11T12:45:07.441Z,48.00
2023-01-11T12:48:05.282Z,47.70
2023-01-11T12:50:50.458Z,44.60
2023-01-11T12:53:41.529Z,46.80
2023-01-11T12:56:33.191Z,46.20
2023-01-11T12:59:27.854Z,47.00
2023-01-11T13:01:57.655Z,46.60
2023-01-11T13:05:11.960Z,45.30
2023-01-11T13:08:15.659Z,45.60
2023-01-11T13:11:35.651Z,47.10
2023-01-11T13:14:39.847Z,48.80
2023-01-11T13:17:15.542Z,48.10
2023-01-11T13:19:42.377Z,45.80
2023-01-11T13:22:14.980Z,47.30
2023-01-11T13:24:41.901Z,48.60
2023-01-11T13:27:14.031Z,47.90
2023-01-11T13:29:42.850Z,47.10
2023-01-11T13:32:37.474Z,45.70
2023-01-11T13:35:15.260Z,46.10
2023-01-11T13:37:48.154Z,45.40
2023-01-11T13:40:30.582Z,46.10
2023-01-11T13:43:04.307Z,46.10
2023-01-11T13:45:35.982Z,47.80
2023-01-11T13:48:18.497Z,45.90
2023-01-11T13:50:51.438Z,46.70
2023-01-11T13:53:37.575Z,48.40
2023-01-11T13:56:16.111Z,47.70
2023-01-11T13:59:07.497Z,48.10
2023-01-11T14:02:12.199Z,49.10
2023-01-11T14:04:46.765Z,48.10
2023-01-11T14:07:17.192Z,47.50
2023-01-11T14:09:56.012Z,48.20
2023-01-11T14:12:28.812Z,48.50
2023-01-11T14:15:32.372Z,48.10
2023-01-11T14:18:23.604Z,46.10
2023-01-11T14:21:01.858Z,46.60
2023-01-11T14:23:50.922Z,45.80
2023-01-11T14:26:42.547Z,46.10
2023-01-11T14:29:38.739Z,46.10
2023-01-11T14:32:17.748Z,47.30
2023-01-11T14:35:07.174Z,47.50
2023-01-11T14:38:01.542Z,48.40
2023-01-11T14:41:04.593Z,47.90
2023-01-11T14:44:06.571Z,49.30
2023-01-11T14:47:00.758Z,50.10
2023-01-11T14:49:44.171Z,49.60
2023-01-11T14:52:19.800Z,51.20
2023-01-11T14:54:47.276Z,49.50
2023-01-11T14:57:37.582Z,48.00
2023-01-11T15:00:24.329Z,48.30
2023-01-11T15:03:11.352Z,50.20
2023-01-11T15:05:44.259Z,49.40
2023-01-11T15:08:13.849Z,49.30
2023-01-11T15:10:56.536Z,50.30
2023-01-11T15:13:44.645Z,48.60
2023-01-11T15:16:41.180Z,49.90
2023-01-11T15:19:13.022Z,47.90
2023-01-11T15:21:47.817Z,49.10
2023-01-11T15:24:26.271Z,50.50
2023-01-11T15:26:53.213Z,51.00
2023-01-11T15:29:28.364Z,52.30
2023-01-11T15:32:01.060Z,53.00
2023-01-11T15:34:42.641Z,53.70
2023-01-11T15:37:40.785Z,53.10
2023-01-11T15:40:20.442Z,53.50
2023-01-11T15:43:21.149Z,52.00
2023-01-11T15:46:43.931Z,53.30
2023-01-11T15:49:25.909Z,52.30
2023-01-11T15:52:01.581Z,51.80
2023-01-11T15:54:37.997Z,53.20
2023-01-11T15:57:42.214Z,53.00
2023-01-11T16:00:35.911Z,53.90
2023-01-11T16:03:40.380Z,53.50
2023-01-11T16:06:25.964Z,54.10
2023-01-11T16:09:30.669Z,54.80
2023-01-11T16:12:36.070Z,55.60
2023-01-11T16:15:40.377Z,56.00
2023-01-11T16:18:15.406Z,56.10
2023-01-11T16:20:44.109Z,57.10
2023-01-11T16:23:17.939Z,57.30
2023-01-11T16:25:46.551Z,57.30
2023-01-11T16:28:17.984Z,57.70
2023-01-11T16:30:46.597Z,57.60
2023-01-11T16:33:23.693Z,57.80
2023-01-11T16:35:50.667Z,58.00
2023-01-11T16:38:19.756Z,58.90
2023-01-11T16:40:49.611Z,60.50
2023-01-11T16:43:19.929Z,60.90
2023-01-11T16:45:56.070Z,61.40
2023-01-11T16:48:23.977Z,61.90
2023-01-11T16:50:57.705Z,62.30
2023-01-11T16:53:25.681Z,63.10
2023-01-11T16:56:06.768Z,62.80
2023-01-11T16:58:34.388Z,63.60
2023-01-11T17:01:14.579Z,64.70
2023-01-11T17:03:48.422Z,65.10
2023-01-11T17:06:19.518Z,65.40
2023-01-11T17:08:48.295Z,65.70
2023-01-11T17:11:35.072Z,65.00
2023-01-11T17:14:04.616Z,66.10
2023-01-11T17:16:32.466Z,65.80
2023-01-11T17:19:01.050Z,65.80
2023-01-11T17:21:29.042Z,64.70
2023-01-11T17:23:59.302Z,65.10
2023-01-11T17:26:28.042Z,66.70
2023-01-11T17:28:57.290Z,68.00
2023-01-11T17:31:30.539Z,68.60
2023-01-11T17:34:15.921Z,68.60
2023-01-11T17:36:42.732Z,68.80
2023-01-11T17:39:15.239Z,69.50
2023-01-11T17:42:00.560Z,69.30
2023-01-11T17:44:45.906Z,69.40
2023-01-11T17:47:12.875Z,70.30
2023-01-11T17:49:39.660Z,70.80
2023-01-11T17:52:19.247Z,70.20
2023-01-11T17:54:46.179Z,70.30
2023-01-11T17:57:12.902Z,70.20
2023-01-11T17:59:39.903Z,71.20
2023-01-11T18:02:13.762Z,71.30
2023-01-11T18:04:40.831Z,71.40
2023-01-11T18:07:19.818Z,71.20
2023-01-11T18:09:50.557Z,70.50
2023-01-11T18:12:21.592Z,70.80
2023-01-11T18:14:50.921Z,71.40
2023-01-11T18:17:32.930Z,71.90
2023-01-11T18:20:00.120Z,71.80
2023-01-11T18:22:37.455Z,71.50
2023-01-11T18:25:23.461Z,71.30
2023-01-11T18:27:51.009Z,72.30
2023-01-11T18:30:32.929Z,72.60
2023-01-11T18:33:01.891Z,72.70
2023-01-11T18:35:28.995Z,72.60
2023-01-11T18:37:55.829Z,73.20
2023-01-11T18:40:22.648Z,73.40
2023-01-11T18:42:50.804Z,73.30
2023-01-11T18:45:17.958Z,73.00
2023-01-11T18:47:44.799Z,74.20
2023-01-11T18:50:12.781Z,74.80
2023-01-11T18:52:39.589Z,73.80
2023-01-11T18:55:06.751Z,73.30
2023-01-11T18:57:33.657Z,74.80
2023-01-11T19:00:00.449Z,75.40
2023-01-11T19:02:27.305Z,74.40
2023-01-11T19:04:55.179Z,74.90
2023-01-11T19:07:23.052Z,74.70
2023-01-11T19:09:50.172Z,75.20
2023-01-11T19:12:17.130Z,75.20
2023-01-11T19:14:44.007Z,76.00
2023-01-11T19:17:11.220Z,76.20
2023-01-11T19:19:38.157Z,77.40
2023-01-11T19:22:05.411Z,77.90
2023-01-11T19:24:32.419Z,78.00
2023-01-11T19:26:59.376Z,77.80
2023-01-11T19:29:26.243Z,78.10
2023-01-11T19:31:53.339Z,78.90
2023-01-11T19:34:20.253Z,79.10
2023-01-11T19:36:47.216Z,79.40
2023-01-11T19:39:14.113Z,79.70
2023-01-11T19:42:01.388Z,79.40
2023-01-11T19:44:35.747Z,78.90
2023-01-11T19:47:11.421Z,79.10
2023-01-11T19:49:39.815Z,80.30
2023-01-11T19:52:12.545Z,81.40
2023-01-11T19:54:43.170Z,81.40
2023-01-11T19:57:14.947Z,81.10
2023-01-11T19:59:42.048Z,81.10
2023-01-11T20:02:13.922Z,80.20
2023-01-11T20:04:40.932Z,80.30
2023-01-11T20:07:08.433Z,81.00
2023-01-11T20:09:37.821Z,81.90
2023-01-11T20:12:09.171Z,80.60
2023-01-11T20:14:36.483Z,81.00
2023-01-11T20:17:03.344Z,81.60
2023-01-11T20:19:32.318Z,82.50
2023-01-11T20:21:59.049Z,82.70
2023-01-11T20:24:29.587Z,82.40
2023-01-11T20:27:00.482Z,82.70
2023-01-11T20:29:27.317Z,83.00
2023-01-11T20:31:54.135Z,83.10
2023-01-11T20:34:21.134Z,82.80
2023-01-11T20:36:48.914Z,83.10
2023-01-11T20:39:15.888Z,83.30
2023-01-11T20:41:48.871Z,84.00
2023-01-11T20:44:28.154Z,84.20
2023-01-11T20:46:56.049Z,84.70
2023-01-11T20:49:23.867Z,84.00
2023-01-11T20:51:50.698Z,84.40
2023-01-11T20:54:17.482Z,84.90
2023-01-11T20:56:46.946Z,86.00
2023-01-11T20:59:17.462Z,85.80
2023-01-11T21:01:44.393Z,86.30
2023-01-11T21:04:11.702Z,88.30
2023-01-11T21:06:40.983Z,89.00
2023-01-11T21:09:08.228Z,89.20
2023-01-11T21:11:35.244Z,88.70
2023-01-11T21:14:04.071Z,89.10
2023-01-11T21:16:31.446Z,89.40
2023-01-11T21:19:02.444Z,89.30
2023-01-11T21:21:29.714Z,90.20
2023-01-11T21:23:57.952Z,89.60
2023-01-11T21:26:25.011Z,90.30
2023-01-11T21:28:53.366Z,89.90
2023-01-11T21:31:21.297Z,90.00
2023-01-11T21:33:50.848Z,90.40
2023-01-11T21:36:20.920Z,90.20
2023-01-11T21:38:47.765Z,90.90
2023-01-11T21:41:16.252Z,91.20
2023-01-11T21:43:43.102Z,91.50
2023-01-11T21:46:10.512Z,91.00
2023-01-11T21:48:37.431Z,91.20
2023-01-11T21:51:06.909Z,91.30
2023-01-11T21:53:34.552Z,91.50
2023-01-11T21:56:08.201Z,92.20
2023-01-11T21:58:35.243Z,92.70
2023-01-11T22:01:12.485Z,92.60
2023-01-11T22:03:42.186Z,92.30
2023-01-11T22:06:09.211Z,92.40
2023-01-11T22:08:36.790Z,92.50
2023-01-11T22:11:07.232Z,92.40
2023-01-11T22:13:34.782Z,92.40
2023-01-11T22:16:09.261Z,93.10
2023-01-11T22:18:36.146Z,93.60
2023-01-11T22:21:12.949Z,93.70
2023-01-11T22:23:40.260Z,93.80
2023-01-11T22:26:08.030Z,93.50
2023-01-11T22:28:57.510Z,94.10
2023-01-11T22:31:24.753Z,94.50
2023-01-11T22:33:51.718Z,94.50
2023-01-11T22:36:18.957Z,94.70
2023-01-11T22:38:46.877Z,94.90
2023-01-11T22:41:14.922Z,94.90
2023-01-11T22:43:43.076Z,95.10
2023-01-11T22:46:13.522Z,95.30
2023-01-11T22:48:40.327Z,95.30
2023-01-11T22:51:07.844Z,95.40
2023-01-11T22:53:38.526Z,95.60
2023-01-11T22:56:05.716Z,95.60
2023-01-11T22:58:32.536Z,95.50
2023-01-11T23:00:59.297Z,95.30
2023-01-11T23:03:26.156Z,95.90
2023-01-11T23:05:52.980Z,96.00
2023-01-11T23:08:19.736Z,96.10
2023-01-11T23:10:46.578Z,96.40
2023-01-11T23:13:31.803Z,96.50
2023-01-11T23:15:58.681Z,96.50
2023-01-11T23:18:25.694Z,96.60
2023-01-11T23:20:52.460Z,96.60
2023-01-11T23:23:19.297Z,96.80
2023-01-11T23:25:46.044Z,97.20
2023-01-11T23:28:12.821Z,97.90
2023-01-11T23:30:39.635Z,98.50
2023-01-11T23:33:06.428Z,98.90
2023-01-11T23:35:33.285Z,99.20
2023-01-11T23:38:00.123Z,99.70
2023-01-11T23:40:26.934Z,99.90
2023-01-11T23:42:53.645Z,99.90
2023-01-11T23:45:20.358Z,99.90
2023-01-11T23:47:47.135Z,99.90
2023-01-11T23:50:14.585Z,99.90
2023-01-11T23:52:41.413Z,99.90
2023-01-11T23:55:09.195Z,99.90
2023-01-11T23:57:36.019Z,99.90
